createdAt,value
2019-05-25T00:02:42.915Z,12.77
2019-05-25T00:05:29.247Z,12.69
2019-05-25T00:08:15.253Z,12.65
2019-05-25T00:11:01.265Z,12.65
2019-05-25T00:13:47.631Z,12.63
2019-05-25T00:16:33.924Z,12.71
2019-05-25T00:19:19.864Z,12.63
2019-05-25T00:22:06.186Z,12.56
2019-05-25T00:24:52.328Z,12.44
2019-05-25T00:27:38.377Z,12.38
2019-05-25T00:30:24.778Z,12.43
2019-05-25T00:33:10.687Z,12.37
2019-05-25T00:35:56.964Z,12.43
2019-05-25T00:38:43.021Z,12.37
2019-05-25T00:41:29.216Z,12.35
2019-05-25T00:44:15.421Z,12.33
2019-05-25T00:47:01.531Z,12.32
2019-05-25T00:49:47.603Z,12.36
2019-05-25T00:52:33.889Z,12.30
2019-05-25T00:55:19.986Z,12.23
2019-05-25T00:58:06.101Z,12.23
2019-05-25T01:00:52.448Z,12.14
2019-05-25T01:03:38.578Z,12.13
2019-05-25T01:06:24.767Z,12.13
2019-05-25T01:09:10.831Z,12.10
2019-05-25T01:11:56.987Z,12.09
2019-05-25T01:14:43.266Z,12.11
2019-05-25T01:17:29.332Z,12.06
2019-05-25T01:20:16.233Z,11.95
2019-05-25T01:23:02.382Z,11.94
2019-05-25T01:25:48.476Z,11.88
2019-05-25T01:28:37.593Z,11.80
2019-05-25T01:31:22.897Z,11.77
2019-05-25T01:34:08.966Z,11.72
2019-05-25T01:36:55.146Z,11.68
2019-05-25T01:39:41.401Z,11.69
2019-05-25T01:42:27.462Z,11.56
2019-05-25T01:45:13.867Z,11.53
2019-05-25T01:48:00.136Z,11.52
2019-05-25T01:50:46.393Z,11.49
2019-05-25T01:53:32.491Z,11.49
2019-05-25T01:56:18.722Z,11.46
2019-05-25T01:59:05.051Z,11.43
2019-05-25T02:01:51.226Z,11.37
2019-05-25T02:04:37.311Z,11.32
2019-05-25T02:07:23.371Z,11.27
2019-05-25T02:10:10.110Z,11.20
2019-05-25T02:12:56.376Z,11.20
2019-05-25T02:15:42.551Z,11.14
2019-05-25T02:18:28.746Z,11.10
2019-05-25T02:21:14.821Z,11.13
2019-05-25T02:24:01.026Z,11.10
2019-05-25T02:26:47.038Z,11.09
2019-05-25T02:29:33.041Z,11.13
2019-05-25T02:32:19.351Z,11.04
2019-05-25T02:35:06.077Z,11.04
2019-05-25T02:37:52.104Z,10.93
2019-05-25T02:40:38.457Z,11.01
2019-05-25T02:43:24.546Z,10.96
2019-05-25T02:46:10.719Z,11.04
2019-05-25T02:48:56.961Z,11.09
2019-05-25T02:51:43.011Z,11.08
2019-05-25T02:54:29.103Z,11.02
2019-05-25T02:57:15.181Z,11.07
2019-05-25T03:00:01.354Z,11.05
2019-05-25T03:02:47.723Z,11.02
2019-05-25T03:05:33.683Z,11.02
2019-05-25T03:08:19.821Z,11.00
2019-05-25T03:11:06.157Z,11.02
2019-05-25T03:13:52.207Z,11.05
2019-05-25T03:16:38.304Z,11.09
2019-05-25T03:19:24.496Z,11.02
2019-05-25T03:22:10.772Z,10.98
2019-05-25T03:24:56.995Z,11.08
2019-05-25T03:27:43.087Z,11.03
2019-05-25T03:30:31.842Z,10.99
2019-05-25T03:33:18.023Z,11.11
2019-05-25T03:36:04.346Z,11.08
2019-05-25T03:38:50.408Z,11.17
2019-05-25T03:41:36.658Z,11.22
2019-05-25T03:44:22.624Z,11.33
2019-05-25T03:47:08.812Z,11.36
2019-05-25T03:49:55.041Z,11.34
2019-05-25T03:52:41.126Z,11.50
2019-05-25T03:55:27.277Z,11.62
2019-05-25T03:58:13.748Z,11.58
2019-05-25T04:00:59.899Z,11.54
2019-05-25T04:03:45.911Z,11.59
2019-05-25T04:06:32.263Z,11.68
2019-05-25T04:09:18.311Z,11.65
2019-05-25T04:12:04.662Z,11.77
2019-05-25T04:14:50.587Z,11.76
2019-05-25T04:17:36.801Z,11.81
2019-05-25T04:20:23.066Z,11.71
2019-05-25T04:23:09.152Z,11.83
2019-05-25T04:25:55.325Z,11.81
2019-05-25T04:28:41.513Z,11.91
2019-05-25T04:31:27.599Z,11.86
2019-05-25T04:34:13.687Z,11.92
2019-05-25T04:36:59.882Z,11.84
2019-05-25T04:39:45.937Z,11.74
2019-05-25T04:42:32.231Z,11.98
2019-05-25T04:45:18.322Z,11.97
2019-05-25T04:48:04.407Z,11.94
2019-05-25T04:50:50.718Z,12.04
2019-05-25T04:53:36.702Z,12.11
2019-05-25T04:56:38.158Z,12.09
2019-05-25T04:59:10.582Z,12.16
2019-05-25T05:01:56.676Z,12.24
2019-05-25T05:04:42.782Z,12.24
2019-05-25T05:07:29.011Z,12.24
2019-05-25T05:10:15.366Z,12.20
2019-05-25T05:13:01.257Z,12.27
2019-05-25T05:15:47.381Z,12.30
2019-05-25T05:18:33.516Z,12.42
2019-05-25T05:21:19.741Z,12.41
2019-05-25T05:24:05.872Z,12.46
2019-05-25T05:26:55.785Z,12.38
2019-05-25T05:29:40.327Z,12.28
2019-05-25T05:32:28.004Z,12.39
2019-05-25T05:35:14.247Z,12.48
2019-05-25T05:38:05.758Z,12.54
2019-05-25T05:40:52.467Z,12.65
2019-05-25T05:43:39.453Z,12.75
2019-05-25T05:46:27.457Z,12.79
2019-05-25T05:49:13.652Z,12.97
2019-05-25T05:52:02.886Z,13.07
2019-05-25T05:54:49.967Z,13.04
2019-05-25T05:57:35.916Z,13.22
2019-05-25T06:00:22.287Z,13.15
2019-05-25T06:03:08.251Z,13.33
2019-05-25T06:05:54.336Z,13.36
2019-05-25T06:08:40.651Z,13.37
2019-05-25T06:11:26.676Z,13.42
2019-05-25T06:14:12.951Z,13.43
2019-05-25T06:16:59.296Z,13.43
2019-05-25T06:19:45.413Z,13.62
2019-05-25T06:22:31.517Z,13.57
2019-05-25T06:25:17.659Z,13.61
2019-05-25T06:28:03.670Z,13.54
2019-05-25T06:30:49.637Z,13.41
2019-05-25T06:33:35.772Z,13.44
2019-05-25T06:36:21.947Z,13.32
2019-05-25T06:39:08.187Z,13.25
2019-05-25T06:41:54.282Z,13.20
2019-05-25T06:44:40.577Z,13.11
2019-05-25T06:47:27.006Z,13.11
2019-05-25T06:50:13.446Z,13.04
2019-05-25T06:52:59.443Z,12.90
2019-05-25T06:55:45.552Z,12.98
2019-05-25T06:58:31.696Z,13.02
2019-05-25T07:01:18.136Z,13.00
2019-05-25T07:04:04.067Z,12.94
2019-05-25T07:06:50.176Z,12.99
2019-05-25T07:09:36.506Z,13.08
2019-05-25T07:12:22.536Z,12.94
2019-05-25T07:15:09.118Z,13.11
2019-05-25T07:17:55.476Z,13.22
2019-05-25T07:20:41.406Z,13.24
2019-05-25T07:23:27.592Z,13.28
2019-05-25T07:26:13.719Z,13.28
2019-05-25T07:28:59.796Z,13.29
2019-05-25T07:31:46.066Z,13.41
2019-05-25T07:34:32.093Z,13.53
2019-05-25T07:37:18.196Z,13.38
2019-05-25T07:40:05.013Z,13.35
2019-05-25T07:42:51.209Z,13.45
2019-05-25T07:45:37.376Z,13.51
2019-05-25T07:48:23.660Z,13.36
2019-05-25T07:51:09.810Z,13.57
2019-05-25T07:53:56.041Z,13.51
2019-05-25T07:56:42.102Z,13.54
2019-05-25T07:59:28.317Z,13.80
2019-05-25T08:02:14.561Z,13.52
2019-05-25T08:05:00.621Z,13.65
2019-05-25T08:07:46.752Z,13.79
2019-05-25T08:10:33.058Z,13.86
2019-05-25T08:13:19.079Z,13.89
2019-05-25T08:16:05.151Z,14.12
2019-05-25T08:18:51.423Z,14.07
2019-05-25T08:21:37.399Z,14.23
2019-05-25T08:24:23.816Z,14.39
2019-05-25T08:27:09.897Z,14.48
2019-05-25T08:29:56.002Z,14.67
2019-05-25T08:32:42.092Z,14.90
2019-05-25T08:35:28.272Z,14.97
2019-05-25T08:38:14.522Z,15.38
2019-05-25T08:41:00.757Z,15.37
2019-05-25T08:43:46.811Z,15.39
2019-05-25T08:46:32.919Z,15.06
2019-05-25T08:49:19.232Z,15.24
2019-05-25T08:52:05.366Z,14.73
2019-05-25T08:54:51.619Z,14.69
2019-05-25T08:57:39.788Z,14.74
2019-05-25T09:00:25.769Z,14.78
2019-05-25T09:03:11.917Z,15.01
2019-05-25T09:05:58.211Z,14.97
2019-05-25T09:08:45.838Z,15.16
2019-05-25T09:11:32.047Z,15.26
2019-05-25T09:14:18.167Z,15.92
2019-05-25T09:17:04.218Z,16.32
2019-05-25T09:19:50.361Z,16.59
2019-05-25T09:22:36.491Z,16.51
2019-05-25T09:25:22.728Z,16.64
2019-05-25T09:28:08.965Z,16.36
2019-05-25T09:30:55.309Z,16.08
2019-05-25T09:33:41.291Z,15.91
2019-05-25T09:36:27.744Z,16.24
2019-05-25T09:39:13.843Z,16.80
2019-05-25T09:41:59.826Z,17.25
2019-05-25T09:44:46.086Z,17.94
2019-05-25T09:47:32.317Z,17.61
2019-05-25T09:50:18.642Z,17.62
2019-05-25T09:53:04.658Z,17.66
2019-05-25T09:55:50.531Z,17.23
2019-05-25T09:58:36.756Z,17.58
2019-05-25T10:01:22.852Z,17.57
2019-05-25T10:04:09.016Z,17.78
2019-05-25T10:06:55.408Z,18.58
2019-05-25T10:09:41.546Z,18.77
2019-05-25T10:12:27.706Z,18.63
2019-05-25T10:15:14.926Z,17.96
2019-05-25T10:18:17.913Z,18.92
2019-05-25T10:21:04.139Z,19.07
2019-05-25T10:23:53.258Z,18.10
2019-05-25T10:26:39.467Z,19.05
2019-05-25T10:29:36.652Z,18.98
2019-05-25T10:32:18.652Z,18.97
2019-05-25T10:35:05.451Z,19.77
2019-05-25T10:37:56.242Z,19.66
2019-05-25T10:40:42.521Z,20.32
2019-05-25T10:43:28.586Z,20.39
2019-05-25T10:46:14.831Z,20.55
2019-05-25T10:49:00.931Z,19.84
2019-05-25T10:51:47.286Z,19.25
2019-05-25T10:54:33.492Z,19.61
2019-05-25T10:57:19.606Z,19.70
2019-05-25T11:00:05.972Z,19.37
2019-05-25T11:02:51.778Z,19.59
2019-05-25T11:05:37.977Z,19.21
2019-05-25T11:08:24.272Z,19.36
2019-05-25T11:11:10.412Z,18.88
2019-05-25T11:13:56.517Z,18.83
2019-05-25T11:16:42.957Z,18.89
2019-05-25T11:19:28.744Z,18.89
2019-05-25T11:22:14.986Z,18.84
2019-05-25T11:25:01.123Z,18.67
2019-05-25T11:27:47.336Z,19.75
2019-05-25T11:30:33.663Z,19.28
2019-05-25T11:33:19.552Z,18.67
2019-05-25T11:36:05.717Z,19.22
2019-05-25T11:38:51.968Z,18.27
2019-05-25T11:41:38.051Z,18.21
2019-05-25T11:44:24.931Z,18.36
2019-05-25T11:47:11.458Z,18.93
2019-05-25T11:49:57.576Z,18.96
2019-05-25T11:52:43.782Z,19.12
2019-05-25T11:55:29.862Z,18.94
2019-05-25T11:58:15.822Z,19.30
2019-05-25T12:01:01.957Z,19.55
2019-05-25T12:03:48.013Z,19.10
2019-05-25T12:06:34.127Z,19.64
2019-05-25T12:09:20.341Z,20.09
2019-05-25T12:12:06.422Z,19.93
2019-05-25T12:14:52.512Z,19.73
2019-05-25T12:17:38.772Z,19.30
2019-05-25T12:20:24.826Z,19.05
2019-05-25T12:23:11.198Z,19.07
2019-05-25T12:25:57.717Z,18.80
2019-05-25T12:28:43.756Z,18.78
2019-05-25T12:31:30.022Z,18.85
2019-05-25T12:34:16.077Z,18.57
2019-05-25T12:37:02.261Z,18.31
2019-05-25T12:39:48.327Z,18.83
2019-05-25T12:42:34.391Z,19.25
2019-05-25T12:45:22.528Z,19.53
2019-05-25T12:48:08.852Z,19.85
2019-05-25T12:50:54.861Z,20.04
2019-05-25T12:53:40.971Z,20.34
2019-05-25T12:56:27.176Z,19.94
2019-05-25T12:59:13.223Z,19.82
2019-05-25T13:01:59.357Z,19.60
2019-05-25T13:04:45.561Z,19.48
2019-05-25T13:07:31.683Z,19.34
2019-05-25T13:10:17.957Z,18.90
2019-05-25T13:13:03.764Z,19.36
2019-05-25T13:15:49.852Z,18.71
2019-05-25T13:18:36.017Z,18.57
2019-05-25T13:21:22.127Z,19.07
2019-05-25T13:24:08.231Z,19.20
2019-05-25T13:26:54.619Z,19.19
2019-05-25T13:29:40.747Z,19.57
2019-05-25T13:32:27.005Z,19.57
2019-05-25T13:35:13.464Z,19.72
2019-05-25T13:37:59.881Z,19.42
2019-05-25T13:40:46.137Z,18.77
2019-05-25T13:43:32.201Z,18.76
2019-05-25T13:46:18.244Z,18.80
2019-05-25T13:49:04.387Z,19.36
2019-05-25T13:51:50.460Z,19.45
2019-05-25T13:54:36.655Z,19.61
2019-05-25T13:57:23.026Z,19.32
2019-05-25T14:00:10.142Z,19.04
2019-05-25T14:02:56.866Z,18.83
2019-05-25T14:05:43.033Z,19.06
2019-05-25T14:08:29.127Z,19.17
2019-05-25T14:11:15.197Z,19.09
2019-05-25T14:14:01.417Z,18.96
2019-05-25T14:16:47.586Z,19.16
2019-05-25T14:19:33.782Z,19.25
2019-05-25T14:22:19.918Z,19.47
2019-05-25T14:25:06.860Z,19.70
2019-05-25T14:27:52.686Z,19.39
2019-05-25T14:30:38.638Z,19.57
2019-05-25T14:33:24.837Z,19.02
2019-05-25T14:36:11.067Z,19.04
2019-05-25T14:38:57.089Z,19.29
2019-05-25T14:41:43.146Z,19.14
2019-05-25T14:44:29.396Z,19.12
2019-05-25T14:47:15.580Z,19.10
2019-05-25T14:50:01.990Z,18.99
2019-05-25T14:52:47.901Z,18.90
2019-05-25T14:55:33.942Z,19.14
2019-05-25T14:58:20.207Z,18.91
2019-05-25T15:01:06.225Z,18.96
2019-05-25T15:03:52.452Z,18.50
2019-05-25T15:06:38.824Z,18.44
2019-05-25T15:09:24.842Z,18.34
2019-05-25T15:12:11.008Z,18.17
2019-05-25T15:14:57.317Z,18.45
2019-05-25T15:17:43.535Z,18.30
2019-05-25T15:20:29.957Z,18.07
2019-05-25T15:23:16.280Z,18.77
2019-05-25T15:26:02.293Z,19.03
2019-05-25T15:28:48.574Z,18.97
2019-05-25T15:31:34.583Z,18.89
2019-05-25T15:34:20.721Z,18.84
2019-05-25T15:37:06.976Z,19.06
2019-05-25T15:39:53.082Z,19.04
2019-05-25T15:42:39.206Z,19.06
2019-05-25T15:45:25.611Z,18.91
2019-05-25T15:48:11.812Z,18.65
2019-05-25T15:50:58.086Z,18.63
2019-05-25T15:53:44.447Z,18.82
2019-05-25T15:56:30.509Z,18.73
2019-05-25T15:59:16.672Z,18.53
2019-05-25T16:02:02.674Z,18.66
2019-05-25T16:04:48.657Z,18.47
2019-05-25T16:07:37.588Z,18.55
2019-05-25T16:10:23.644Z,18.60
2019-05-25T16:13:09.731Z,18.36
2019-05-25T16:15:55.876Z,18.23
2019-05-25T16:18:41.979Z,18.31
2019-05-25T16:21:28.057Z,18.30
2019-05-25T16:24:14.896Z,18.32
2019-05-25T16:27:00.931Z,18.34
2019-05-25T16:29:47.051Z,18.55
2019-05-25T16:32:33.323Z,18.65
2019-05-25T16:35:19.387Z,18.68
2019-05-25T16:38:05.880Z,18.53
2019-05-25T16:40:52.356Z,18.71
2019-05-25T16:43:38.297Z,18.58
2019-05-25T16:46:24.669Z,18.75
2019-05-25T16:49:10.691Z,18.70
2019-05-25T16:51:56.866Z,18.55
2019-05-25T16:54:43.080Z,18.21
2019-05-25T16:57:29.077Z,18.06
2019-05-25T17:00:25.102Z,18.15
2019-05-25T17:03:26.906Z,18.11
2019-05-25T17:05:58.946Z,18.06
2019-05-25T17:08:45.502Z,18.16
2019-05-25T17:11:31.752Z,18.21
2019-05-25T17:14:17.831Z,18.22
2019-05-25T17:17:04.161Z,17.92
2019-05-25T17:19:49.966Z,17.95
2019-05-25T17:22:36.341Z,18.17
2019-05-25T17:25:22.977Z,18.04
2019-05-25T17:28:09.357Z,17.82
2019-05-25T17:30:55.622Z,17.87
2019-05-25T17:33:45.880Z,17.79
2019-05-25T17:36:29.731Z,17.90
2019-05-25T17:39:15.871Z,17.99
2019-05-25T17:42:01.977Z,17.99
2019-05-25T17:44:48.031Z,17.90
2019-05-25T17:47:34.966Z,17.66
2019-05-25T17:50:21.251Z,17.84
2019-05-25T17:53:07.102Z,17.82
2019-05-25T17:55:53.436Z,17.77
2019-05-25T17:58:39.457Z,17.69
2019-05-25T18:01:25.796Z,17.59
2019-05-25T18:04:12.062Z,17.44
2019-05-25T18:06:58.194Z,17.45
2019-05-25T18:09:44.344Z,17.56
2019-05-25T18:12:30.403Z,17.53
2019-05-25T18:15:16.471Z,17.39
2019-05-25T18:18:03.152Z,17.30
2019-05-25T18:20:49.694Z,17.20
2019-05-25T18:23:36.073Z,17.12
2019-05-25T18:26:22.616Z,17.03
2019-05-25T18:29:08.622Z,16.93
2019-05-25T18:31:54.801Z,16.93
2019-05-25T18:34:41.131Z,16.97
2019-05-25T18:37:27.257Z,17.03
2019-05-25T18:40:13.536Z,16.97
2019-05-25T18:42:59.492Z,16.93
2019-05-25T18:45:45.601Z,16.92
2019-05-25T18:48:34.367Z,16.85
2019-05-25T18:51:20.057Z,16.85
2019-05-25T18:54:06.011Z,16.75
2019-05-25T18:56:52.191Z,16.82
2019-05-25T18:59:38.197Z,16.73
2019-05-25T19:02:24.407Z,16.65
2019-05-25T19:05:10.744Z,16.56
2019-05-25T19:07:56.488Z,16.22
2019-05-25T19:10:42.543Z,16.11
2019-05-25T19:13:29.017Z,15.95
2019-05-25T19:16:15.166Z,15.88
2019-05-25T19:19:01.472Z,15.66
2019-05-25T19:21:47.718Z,15.57
2019-05-25T19:24:33.846Z,15.41
2019-05-25T19:27:20.055Z,15.12
2019-05-25T19:30:06.318Z,15.06
2019-05-25T19:32:52.282Z,14.83
2019-05-25T19:35:38.391Z,14.75
2019-05-25T19:38:24.577Z,14.71
2019-05-25T19:41:10.638Z,14.58
2019-05-25T19:43:57.012Z,14.57
2019-05-25T19:46:43.456Z,14.40
2019-05-25T19:49:29.427Z,14.32
2019-05-25T19:52:15.766Z,14.18
2019-05-25T19:55:01.990Z,14.03
2019-05-25T19:57:48.082Z,13.90
2019-05-25T20:00:34.097Z,13.79
2019-05-25T20:03:20.106Z,13.77
2019-05-25T20:06:06.357Z,13.73
2019-05-25T20:08:52.486Z,13.75
2019-05-25T20:11:38.606Z,13.79
2019-05-25T20:14:24.900Z,13.63
2019-05-25T20:17:10.905Z,13.39
2019-05-25T20:19:57.179Z,13.39
2019-05-25T20:22:43.246Z,13.41
2019-05-25T20:25:29.392Z,13.39
2019-05-25T20:28:15.686Z,13.39
2019-05-25T20:31:01.749Z,13.35
2019-05-25T20:33:47.909Z,13.25
2019-05-25T20:36:34.096Z,13.21
2019-05-25T20:39:20.226Z,13.09
2019-05-25T20:42:06.382Z,12.97
2019-05-25T20:44:52.584Z,12.96
2019-05-25T20:47:38.979Z,12.87
2019-05-25T20:50:25.008Z,12.78
2019-05-25T20:53:11.320Z,12.68
2019-05-25T20:55:57.350Z,12.60
2019-05-25T20:58:43.621Z,12.56
2019-05-25T21:01:29.660Z,12.46
2019-05-25T21:04:15.806Z,12.39
2019-05-25T21:07:02.051Z,12.30
2019-05-25T21:09:48.111Z,12.19
2019-05-25T21:12:34.261Z,12.16
2019-05-25T21:15:20.662Z,12.21
2019-05-25T21:18:06.711Z,12.15
2019-05-25T21:20:52.940Z,12.09
2019-05-25T21:23:39.101Z,12.02
2019-05-25T21:26:25.420Z,12.02
2019-05-25T21:29:11.860Z,12.01
2019-05-25T21:31:58.390Z,11.95
2019-05-25T21:34:44.452Z,11.88
2019-05-25T21:37:30.451Z,11.95
2019-05-25T21:40:16.754Z,11.65
2019-05-25T21:43:02.725Z,11.55
2019-05-25T21:45:51.336Z,11.46
2019-05-25T21:48:37.246Z,11.44
2019-05-25T21:51:23.385Z,11.50
2019-05-25T21:54:09.870Z,11.49
2019-05-25T21:56:55.959Z,11.53
2019-05-25T21:59:41.985Z,11.44
2019-05-25T22:02:28.255Z,11.43
2019-05-25T22:05:14.529Z,11.49
2019-05-25T22:08:00.460Z,11.45
2019-05-25T22:10:46.521Z,11.34
2019-05-25T22:13:32.606Z,11.33
2019-05-25T22:16:18.804Z,11.32
2019-05-25T22:19:04.736Z,11.17
2019-05-25T22:21:51.183Z,11.08
2019-05-25T22:24:37.730Z,10.99
2019-05-25T22:27:23.820Z,11.02
2019-05-25T22:30:10.320Z,11.12
2019-05-25T22:32:57.195Z,11.09
2019-05-25T22:35:43.942Z,11.05
2019-05-25T22:38:30.531Z,11.02
2019-05-25T22:41:19.808Z,11.13
2019-05-25T22:44:06.087Z,11.01
2019-05-25T22:46:52.571Z,11.02
2019-05-25T22:49:38.975Z,11.06
2019-05-25T22:52:25.245Z,10.99
2019-05-25T22:55:11.699Z,10.87
2019-05-25T22:57:57.908Z,10.91
2019-05-25T23:00:44.275Z,10.91
2019-05-25T23:03:30.250Z,10.83
2019-05-25T23:06:16.530Z,10.70
2019-05-25T23:09:04.521Z,10.76
2019-05-25T23:11:50.663Z,10.85
2019-05-25T23:14:37.115Z,10.87
2019-05-25T23:17:23.240Z,10.69
2019-05-25T23:20:09.687Z,10.53
2019-05-25T23:22:56.246Z,10.42
2019-05-25T23:25:42.650Z,10.40
2019-05-25T23:28:29.121Z,10.52
2019-05-25T23:31:18.218Z,10.50
2019-05-25T23:34:04.521Z,10.43
2019-05-25T23:36:50.638Z,10.33
2019-05-25T23:39:37.100Z,10.22
2019-05-25T23:42:23.386Z,10.25
2019-05-25T23:45:11.481Z,10.32
2019-05-25T23:47:57.661Z,10.27
2019-05-25T23:50:44.003Z,10.20
2019-05-25T23:53:30.670Z,10.22
2019-05-25T23:56:16.744Z,10.29
2019-05-25T23:59:02.803Z,10.20
